Airfield :
LOGIN :

Register | Disclaimer

   EN    FR    IT 

 










Legend :    VFR   Marginal VFR   IFR   Intensive IFR   Very Intensive IFR
Visi :
Ceiling :
>= 8 km
>= 3000ft
5 to 8 km
1000 to 3000 ft
1500m to 5 km
500 to 1000 ft
800 to 1500m
200 to 500 ft
< 800m
< 200 ft
Symbols :   Thunderstorms  Fog  Heavy snow  Heavy precipitations  Wind > 20 kt
SIGMETs :     Misc.  Thunderstorms  Icing  Turbulence  Mountain Waves  Volcanic Ashes







- Airport Elevation : 1197 ft
- IATA code : SPM


ETAD - Spangdahlem Ab

CURRENT METAR :
  • 200840Z AUTO 21006KT 9999 BKN014 BKN021 OVC028 17/14 A2992 RMK AO2 CIG 014V025 SLP113 $

EXPIRED METARs :
  • 200756Z AUTO 22005KT 9999 BKN023 17/14 A2992 RMK AO2 BKN V OVC CIG 018 RWY05 SLP113 T01690142 $
  • 200741Z AUTO 22007KT 9999 OVC021 17/14 A2992 RMK AO2 CIG 017 RWY05 SLP113 $
  • 200726Z AUTO 21007KT 9999 FEW010 OVC019 17/14 A2992 RMK AO2 CIG 016 RWY05 SLP113 $
  • 200656Z AUTO 21008KT 9999 OVC011 16/14 A2992 RMK AO2 OVC V BKN SLP113 T01610143
  • 200611Z AUTO 22007KT 9999 BKN012 OVC019 16/15 A2991 RMK AO2 SLP110 $

TAF TAF ETAD
Valid from the 20 at 04:00 until the 21 at 10:00 UTC


200400Z 2004/2110 24006KT 9999 BKN015 QNH2987INS
BECMG 2009/2010 24010G15KT 8000 -SHRA BKN010 OVC015 QNH2988INS
BECMG 2016/2017 32005KT 9999 NSW FEW010 BKN020 QNH2994INS
BECMG 2104/2105 27003KT 9999 FEW035 QNH3004INS TX20/2013Z TN11/2104Z
No reported NOTAMs for that airfield.



MET'MAP, your aeronautical weather chart ! - Copyright ORBIFLY December 2007 - Disclaimer

ORBIFLY MET'MAP TEAM :

Programming & Development : Alexandra Zaïnal
Concept & Development : Baudouin d'Aumeries
Co-Development & Prog : Marc-Olivier Méhu
Technical & hardware support : Manuel Goepfert

Contact : metmap@orbifly.com




SOURCES & CREDITS :

   NOAA